sensor_id;sensor_type;location;lat;lon;timestamp;temperature;humidity
1055;DHT22;516;51.482;7.120;2023-03-01T00:03:36;-2.80;99.90
1055;DHT22;516;51.482;7.120;2023-03-01T00:09:24;-2.90;99.90
1055;DHT22;516;51.482;7.120;2023-03-01T00:25:06;-3.00;99.90
1055;DHT22;516;51.482;7.120;2023-03-01T00:30:54;-3.10;99.90
1055;DHT22;516;51.482;7.120;2023-03-01T00:36:42;-3.10;99.90
1055;DHT22;516;51.482;7.120;2023-03-01T00:42:29;-3.20;99.90
1055;DHT22;516;51.482;7.120;2023-03-01T00:48:17;-3.30;99.90
1055;DHT22;516;51.482;7.120;2023-03-01T00:54:05;-3.30;99.90
1055;DHT22;516;51.482;7.120;2023-03-01T00:59:53;-3.30;99.90
1055;DHT22;516;51.482;7.120;2023-03-01T01:05:40;-3.40;99.90
1055;DHT22;516;51.482;7.120;2023-03-01T01:11:29;-3.60;99.90
1055;DHT22;516;51.482;7.120;2023-03-01T01:17:13;-3.70;99.90
1055;DHT22;516;51.482;7.120;2023-03-01T01:23:01;-3.70;99.90
1055;DHT22;516;51.482;7.120;2023-03-01T01:28:50;-3.70;99.90
1055;DHT22;516;51.482;7.120;2023-03-01T01:34:38;-3.80;99.90
1055;DHT22;516;51.482;7.120;2023-03-01T01:40:26;-3.90;99.90
1055;DHT22;516;51.482;7.120;2023-03-01T01:46:32;-3.90;99.90
1055;DHT22;516;51.482;7.120;2023-03-01T01:52:23;-4.00;99.90
1055;DHT22;516;51.482;7.120;2023-03-01T01:58:15;-3.90;99.90
1055;DHT22;516;51.482;7.120;2023-03-01T02:04:05;-3.90;99.90
1055;DHT22;516;51.482;7.120;2023-03-01T02:09:54;-3.90;99.90
1055;DHT22;516;51.482;7.120;2023-03-01T02:31:20;-3.90;99.90
1055;DHT22;516;51.482;7.120;2023-03-01T02:37:27;-3.90;99.90
1055;DHT22;516;51.482;7.120;2023-03-01T02:43:16;-3.60;99.90
1055;DHT22;516;51.482;7.120;2023-03-01T02:55:43;-3.50;99.90
1055;DHT22;516;51.482;7.120;2023-03-01T03:01:31;-3.50;99.90
1055;DHT22;516;51.482;7.120;2023-03-01T03:07:24;-3.70;99.90
1055;DHT22;516;51.482;7.120;2023-03-01T03:13:14;-4.00;99.90
1055;DHT22;516;51.482;7.120;2023-03-01T03:19:01;-4.00;99.90
1055;DHT22;516;51.482;7.120;2023-03-01T03:24:53;-4.10;99.90
1055;DHT22;516;51.482;7.120;2023-03-01T03:30:41;-4.20;99.90
1055;DHT22;516;51.482;7.120;2023-03-01T03:36:29;-4.20;99.90
1055;DHT22;516;51.482;7.120;2023-03-01T03:42:17;-4.10;99.90
1055;DHT22;516;51.482;7.120;2023-03-01T03:48:06;-4.30;99.90
1055;DHT22;516;51.482;7.120;2023-03-01T03:53:35;-4.30;99.90
1055;DHT22;516;51.482;7.120;2023-03-01T03:59:23;-4.30;99.90
1055;DHT22;516;51.482;7.120;2023-03-01T04:05:13;-4.40;99.90
1055;DHT22;516;51.482;7.120;2023-03-01T04:11:04;-4.60;99.90
1055;DHT22;516;51.482;7.120;2023-03-01T04:17:10;-4.40;99.90
1055;DHT22;516;51.482;7.120;2023-03-01T04:28:55;-4.70;99.90
1055;DHT22;516;51.482;7.120;2023-03-01T04:34:42;-4.60;99.90
1055;DHT22;516;51.482;7.120;2023-03-01T04:40:29;-4.60;99.90
1055;DHT22;516;51.482;7.120;2023-03-01T04:49:37;-4.70;99.90
1055;DHT22;516;51.482;7.120;2023-03-01T04:55:27;-4.80;99.90
1055;DHT22;516;51.482;7.120;2023-03-01T05:01:19;-4.90;99.90
1055;DHT22;516;51.482;7.120;2023-03-01T05:07:06;-4.70;99.90
1055;DHT22;516;51.482;7.120;2023-03-01T05:12:55;-4.60;99.90
1055;DHT22;516;51.482;7.120;2023-03-01T05:22:06;-4.20;99.90
1055;DHT22;516;51.482;7.120;2023-03-01T05:27:54;-4.20;99.90
1055;DHT22;516;51.482;7.120;2023-03-01T05:33:41;-4.10;99.90
1055;DHT22;516;51.482;7.120;2023-03-01T05:39:29;-4.10;99.90
1055;DHT22;516;51.482;7.120;2023-03-01T05:45:17;-4.10;99.90
1055;DHT22;516;51.482;7.120;2023-03-01T05:51:05;-3.80;99.90
1055;DHT22;516;51.482;7.120;2023-03-01T05:56:53;-4.00;99.90
1055;DHT22;516;51.482;7.120;2023-03-01T06:02:41;-3.90;99.90
1055;DHT22;516;51.482;7.120;2023-03-01T06:08:28;-3.80;99.90
1055;DHT22;516;51.482;7.120;2023-03-01T06:14:16;-3.80;99.90
1055;DHT22;516;51.482;7.120;2023-03-01T06:20:03;-3.50;99.90
1055;DHT22;516;51.482;7.120;2023-03-01T06:25:52;-3.60;99.90
1055;DHT22;516;51.482;7.120;2023-03-01T06:31:39;-3.80;99.90
1055;DHT22;516;51.482;7.120;2023-03-01T06:37:27;-3.70;99.90
1055;DHT22;516;51.482;7.120;2023-03-01T06:43:15;-3.70;99.90
1055;DHT22;516;51.482;7.120;2023-03-01T06:49:03;-3.70;99.90
1055;DHT22;516;51.482;7.120;2023-03-01T06:54:55;-3.60;99.90
1055;DHT22;516;51.482;7.120;2023-03-01T07:00:42;-3.40;99.90
1055;DHT22;516;51.482;7.120;2023-03-01T07:06:30;-3.30;99.90
1055;DHT22;516;51.482;7.120;2023-03-01T07:12:18;-2.80;99.90
1055;DHT22;516;51.482;7.120;2023-03-01T07:22:08;-2.10;99.90
1055;DHT22;516;51.482;7.120;2023-03-01T07:27:56;0.70;70.10
1055;DHT22;516;51.482;7.120;2023-03-01T07:33:44;1.70;30.20
1055;DHT22;516;51.482;7.120;2023-03-01T07:39:31;2.50;20.60
1055;DHT22;516;51.482;7.120;2023-03-01T07:45:19;2.60;15.40
1055;DHT22;516;51.482;7.120;2023-03-01T07:51:07;3.20;14.20
1055;DHT22;516;51.482;7.120;2023-03-01T07:56:56;3.10;10.30
1055;DHT22;516;51.482;7.120;2023-03-01T08:02:44;4.30;5.30
1055;DHT22;516;51.482;7.120;2023-03-01T08:08:33;4.60;3.40
1055;DHT22;516;51.482;7.120;2023-03-01T08:14:21;4.50;1.00
1055;DHT22;516;51.482;7.120;2023-03-01T08:20:19;5.90;1.00
1055;DHT22;516;51.482;7.120;2023-03-01T08:32:51;6.90;1.00
1055;DHT22;516;51.482;7.120;2023-03-01T08:38:38;7.20;1.00
1055;DHT22;516;51.482;7.120;2023-03-01T08:44:25;7.30;1.00
1055;DHT22;516;51.482;7.120;2023-03-01T08:50:12;8.10;1.00
1055;DHT22;516;51.482;7.120;2023-03-01T08:56:02;8.20;1.00
1055;DHT22;516;51.482;7.120;2023-03-01T09:01:49;8.60;1.00
1055;DHT22;516;51.482;7.120;2023-03-01T09:07:36;7.90;1.00
1055;DHT22;516;51.482;7.120;2023-03-01T09:13:24;9.10;1.00
1055;DHT22;516;51.482;7.120;2023-03-01T09:22:34;8.60;1.00
1055;DHT22;516;51.482;7.120;2023-03-01T09:28:03;9.30;1.00
1055;DHT22;516;51.482;7.120;2023-03-01T09:33:52;8.80;1.00
1055;DHT22;516;51.482;7.120;2023-03-01T09:39:40;10.20;1.00
1055;DHT22;516;51.482;7.120;2023-03-01T09:45:33;9.90;1.00
1055;DHT22;516;51.482;7.120;2023-03-01T09:58:29;8.60;1.00
1055;DHT22;516;51.482;7.120;2023-03-01T10:10:21;9.50;1.00
1055;DHT22;516;51.482;7.120;2023-03-01T10:23:02;10.60;1.00
1055;DHT22;516;51.482;7.120;2023-03-01T10:34:47;10.90;1.00
1055;DHT22;516;51.482;7.120;2023-03-01T10:40:37;10.90;1.00
1055;DHT22;516;51.482;7.120;2023-03-01T10:47:01;12.10;1.00
1055;DHT22;516;51.482;7.120;2023-03-01T10:59:38;10.50;1.00
1055;DHT22;516;51.482;7.120;2023-03-01T11:05:26;12.50;1.00
1055;DHT22;516;51.482;7.120;2023-03-01T11:26:23;12.50;1.00
1055;DHT22;516;51.482;7.120;2023-03-01T11:32:13;12.50;1.00
1055;DHT22;516;51.482;7.120;2023-03-01T11:44:34;11.80;1.00
1055;DHT22;516;51.482;7.120;2023-03-01T11:50:42;12.50;1.00
1055;DHT22;516;51.482;7.120;2023-03-01T13:26:24;13.60;1.00
1055;DHT22;516;51.482;7.120;2023-03-01T13:32:23;13.40;1.00
1055;DHT22;516;51.482;7.120;2023-03-01T13:44:37;12.40;1.00
1055;DHT22;516;51.482;7.120;2023-03-01T13:50:29;12.30;1.00
1055;DHT22;516;51.482;7.120;2023-03-01T13:56:28;12.30;1.00
1055;DHT22;516;51.482;7.120;2023-03-01T14:02:16;11.80;1.00
1055;DHT22;516;51.482;7.120;2023-03-01T14:08:17;11.60;1.00
1055;DHT22;516;51.482;7.120;2023-03-01T14:20:55;12.60;1.00
1055;DHT22;516;51.482;7.120;2023-03-01T14:26:42;13.60;1.00
1055;DHT22;516;51.482;7.120;2023-03-01T14:32:31;14.00;1.00
1055;DHT22;516;51.482;7.120;2023-03-01T14:44:55;13.30;1.00
1055;DHT22;516;51.482;7.120;2023-03-01T14:50:44;13.00;1.00
1055;DHT22;516;51.482;7.120;2023-03-01T15:03:17;13.00;1.00
1055;DHT22;516;51.482;7.120;2023-03-01T15:09:26;12.70;1.00
1055;DHT22;516;51.482;7.120;2023-03-01T15:21:49;12.10;1.00
1055;DHT22;516;51.482;7.120;2023-03-01T15:31:00;12.50;1.00
1055;DHT22;516;51.482;7.120;2023-03-01T15:43:53;10.30;1.00
1055;DHT22;516;51.482;7.120;2023-03-01T15:49:43;9.30;1.00
1055;DHT22;516;51.482;7.120;2023-03-01T15:55:31;9.80;1.00
1055;DHT22;516;51.482;7.120;2023-03-01T16:01:20;10.70;1.00
1055;DHT22;516;51.482;7.120;2023-03-01T16:07:09;10.60;1.00
1055;DHT22;516;51.482;7.120;2023-03-01T16:12:57;10.20;1.00
1055;DHT22;516;51.482;7.120;2023-03-01T16:18:48;10.40;1.00
1055;DHT22;516;51.482;7.120;2023-03-01T16:24:35;9.90;1.00
1055;DHT22;516;51.482;7.120;2023-03-01T16:30:23;9.60;1.00
1055;DHT22;516;51.482;7.120;2023-03-01T16:36:11;9.00;1.00
1055;DHT22;516;51.482;7.120;2023-03-01T16:42:00;8.60;1.00
1055;DHT22;516;51.482;7.120;2023-03-01T16:47:48;7.60;1.00
1055;DHT22;516;51.482;7.120;2023-03-01T16:53:36;6.50;1.00
1055;DHT22;516;51.482;7.120;2023-03-01T16:59:25;6.20;1.00
1055;DHT22;516;51.482;7.120;2023-03-01T17:05:12;6.00;1.00
1055;DHT22;516;51.482;7.120;2023-03-01T17:11:08;5.70;1.00
1055;DHT22;516;51.482;7.120;2023-03-01T17:16:56;5.40;1.00
1055;DHT22;516;51.482;7.120;2023-03-01T17:22:43;5.10;1.00
1055;DHT22;516;51.482;7.120;2023-03-01T17:31:53;4.90;1.00
1055;DHT22;516;51.482;7.120;2023-03-01T17:37:42;4.60;1.00
1055;DHT22;516;51.482;7.120;2023-03-01T17:43:32;4.50;1.00
1055;DHT22;516;51.482;7.120;2023-03-01T17:49:23;4.50;1.00
1055;DHT22;516;51.482;7.120;2023-03-01T17:55:11;4.40;1.00
1055;DHT22;516;51.482;7.120;2023-03-01T18:01:15;4.30;1.00
1055;DHT22;516;51.482;7.120;2023-03-01T18:07:03;4.20;1.00
1055;DHT22;516;51.482;7.120;2023-03-01T18:12:51;3.90;1.00
1055;DHT22;516;51.482;7.120;2023-03-01T18:18:39;3.80;1.00
1055;DHT22;516;51.482;7.120;2023-03-01T18:24:27;3.70;1.00
1055;DHT22;516;51.482;7.120;2023-03-01T18:27:23;3.60;1.00
1055;DHT22;516;51.482;7.120;2023-03-01T18:29:49;3.60;1.00
1055;DHT22;516;51.482;7.120;2023-03-01T18:35:38;3.50;1.00
1055;DHT22;516;51.482;7.120;2023-03-01T18:41:26;3.20;1.00
1055;DHT22;516;51.482;7.120;2023-03-01T18:47:15;3.20;1.00
1055;DHT22;516;51.482;7.120;2023-03-01T18:53:02;3.10;1.00
1055;DHT22;516;51.482;7.120;2023-03-01T18:58:50;3.10;1.00
1055;DHT22;516;51.482;7.120;2023-03-01T19:04:37;2.90;1.00
1055;DHT22;516;51.482;7.120;2023-03-01T19:10:25;2.80;1.00
1055;DHT22;516;51.482;7.120;2023-03-01T19:16:17;2.70;1.00
1055;DHT22;516;51.482;7.120;2023-03-01T19:22:05;2.80;1.00
1055;DHT22;516;51.482;7.120;2023-03-01T19:31:53;2.70;1.00
1055;DHT22;516;51.482;7.120;2023-03-01T19:37:41;2.90;1.00
1055;DHT22;516;51.482;7.120;2023-03-01T19:43:29;2.80;1.00
1055;DHT22;516;51.482;7.120;2023-03-01T19:49:16;2.60;1.00
1055;DHT22;516;51.482;7.120;2023-03-01T19:55:04;2.70;1.00
1055;DHT22;516;51.482;7.120;2023-03-01T20:00:52;2.60;1.00
1055;DHT22;516;51.482;7.120;2023-03-01T20:06:45;2.60;1.00
1055;DHT22;516;51.482;7.120;2023-03-01T20:12:35;2.60;1.00
1055;DHT22;516;51.482;7.120;2023-03-01T20:18:25;2.50;1.00
1055;DHT22;516;51.482;7.120;2023-03-01T20:24:12;2.40;1.00
1055;DHT22;516;51.482;7.120;2023-03-01T20:29:48;2.40;1.00
1055;DHT22;516;51.482;7.120;2023-03-01T20:35:40;2.30;1.00
1055;DHT22;516;51.482;7.120;2023-03-01T20:41:27;2.30;1.00
1055;DHT22;516;51.482;7.120;2023-03-01T20:47:15;2.20;1.00
1055;DHT22;516;51.482;7.120;2023-03-01T20:53:03;2.20;1.00
1055;DHT22;516;51.482;7.120;2023-03-01T20:58:51;2.10;1.00
1055;DHT22;516;51.482;7.120;2023-03-01T21:04:40;2.10;2.00
1055;DHT22;516;51.482;7.120;2023-03-01T21:10:29;2.10;1.70
1055;DHT22;516;51.482;7.120;2023-03-01T21:16:18;2.00;3.50
1055;DHT22;516;51.482;7.120;2023-03-01T21:22:07;2.00;3.30
1055;DHT22;516;51.482;7.120;2023-03-01T21:37:41;1.70;6.50
1055;DHT22;516;51.482;7.120;2023-03-01T21:43:29;1.70;7.30
1055;DHT22;516;51.482;7.120;2023-03-01T21:49:17;1.60;8.80
1055;DHT22;516;51.482;7.120;2023-03-01T21:55:05;1.70;8.30
1055;DHT22;516;51.482;7.120;2023-03-01T22:00:54;1.80;6.00
1055;DHT22;516;51.482;7.120;2023-03-01T22:06:44;1.80;6.40
1055;DHT22;516;51.482;7.120;2023-03-01T22:12:33;1.50;8.10
1055;DHT22;516;51.482;7.120;2023-03-01T22:18:20;1.50;8.60
1055;DHT22;516;51.482;7.120;2023-03-01T22:24:10;1.40;10.90
1055;DHT22;516;51.482;7.120;2023-03-01T22:29:48;1.50;10.60
1055;DHT22;516;51.482;7.120;2023-03-01T22:35:40;1.50;9.10
1055;DHT22;516;51.482;7.120;2023-03-01T22:41:30;1.50;9.70
1055;DHT22;516;51.482;7.120;2023-03-01T22:47:18;1.60;7.00
1055;DHT22;516;51.482;7.120;2023-03-01T22:53:06;1.80;4.50
1055;DHT22;516;51.482;7.120;2023-03-01T22:58:54;1.80;2.80
1055;DHT22;516;51.482;7.120;2023-03-01T23:04:43;1.80;3.30
1055;DHT22;516;51.482;7.120;2023-03-01T23:10:33;1.60;3.00
1055;DHT22;516;51.482;7.120;2023-03-01T23:16:22;1.30;6.40
1055;DHT22;516;51.482;7.120;2023-03-01T23:22:12;1.30;7.60
1055;DHT22;516;51.482;7.120;2023-03-01T23:31:53;1.40;4.30
1055;DHT22;516;51.482;7.120;2023-03-01T23:37:41;1.20;7.90
1055;DHT22;516;51.482;7.120;2023-03-01T23:43:29;1.00;11.40
1055;DHT22;516;51.482;7.120;2023-03-01T23:49:19;0.60;18.30
1055;DHT22;516;51.482;7.120;2023-03-01T23:55:10;0.10;27.60
